createdAt,value
2023-03-18T00:02:03.215Z,16.35
2023-03-18T00:04:30.644Z,15.75
2023-03-18T00:06:58.908Z,15.15
2023-03-18T00:09:26.779Z,15.63
2023-03-18T00:11:55.113Z,15.30
2023-03-18T00:14:22.584Z,15.20
2023-03-18T00:16:52.666Z,14.65
2023-03-18T00:19:20.171Z,14.70
2023-03-18T00:21:47.389Z,15.55
2023-03-18T00:24:15.509Z,15.85
2023-03-18T00:26:43.832Z,13.85
2023-03-18T00:29:10.988Z,14.95
2023-03-18T00:31:38.558Z,14.90
2023-03-18T00:34:05.779Z,15.57
2023-03-18T00:36:32.815Z,16.48
2023-03-18T00:39:03.538Z,15.88
2023-03-18T00:41:33.258Z,16.00
2023-03-18T00:44:00.529Z,15.57
2023-03-18T00:46:36.571Z,15.70
2023-03-18T00:49:07.761Z,15.75
2023-03-18T00:51:37.550Z,16.55
2023-03-18T00:54:08.038Z,15.45
2023-03-18T00:56:37.735Z,15.82
2023-03-18T00:59:06.470Z,16.63
2023-03-18T01:01:34.030Z,16.85
2023-03-18T01:04:02.011Z,16.48
2023-03-18T01:06:32.530Z,15.82
2023-03-18T01:09:01.452Z,16.88
2023-03-18T01:51:08.796Z,18.85
2023-03-18T01:53:44.249Z,18.58
2023-03-18T01:56:12.053Z,18.10
2023-03-18T01:58:49.771Z,19.17
2023-03-18T02:01:35.517Z,17.80
2023-03-18T02:04:05.748Z,17.50
2023-03-18T02:06:33.516Z,18.08
2023-03-18T02:09:01.295Z,16.80
2023-03-18T02:11:28.836Z,17.63
2023-03-18T02:13:55.889Z,16.90
2023-03-18T02:16:29.155Z,17.85
2023-03-18T02:19:02.289Z,17.13
2023-03-18T02:47:19.965Z,16.20
2023-03-18T02:49:47.338Z,18.13
2023-03-18T02:52:14.447Z,16.58
2023-03-18T02:54:42.077Z,16.65
2023-03-18T02:57:09.162Z,16.73
2023-03-18T02:59:36.337Z,17.27
2023-03-18T03:02:04.002Z,16.60
2023-03-18T03:04:32.072Z,16.63
2023-03-18T03:07:03.471Z,16.33
2023-03-18T03:09:31.094Z,17.38
2023-03-18T03:11:58.216Z,16.85
2023-03-18T03:14:25.407Z,16.10
2023-03-18T03:16:53.009Z,17.73
2023-03-18T03:19:20.058Z,17.85
2023-03-18T03:21:47.654Z,18.38
2023-03-18T03:24:14.739Z,17.88
2023-03-18T03:26:41.813Z,18.13
2023-03-18T03:29:08.803Z,18.40
2023-03-18T03:31:35.893Z,21.25
2023-03-18T03:34:02.988Z,19.48
2023-03-18T03:36:30.028Z,20.27
2023-03-18T03:38:57.121Z,21.45
2023-03-18T03:41:24.103Z,20.95
2023-03-18T03:43:51.092Z,21.27
2023-03-18T03:46:18.492Z,21.13
2023-03-18T03:48:45.632Z,21.95
2023-03-18T03:51:12.964Z,22.27
2023-03-18T03:53:40.863Z,22.17
2023-03-18T03:56:09.330Z,21.83
2023-03-18T03:58:36.788Z,21.10
2023-03-18T04:01:06.656Z,22.90
2023-03-18T04:03:34.175Z,21.58
2023-03-18T04:06:01.301Z,21.05
2023-03-18T04:08:28.406Z,22.45
2023-03-18T04:10:55.431Z,21.60
2023-03-18T04:13:22.426Z,22.25
2023-03-18T04:15:49.511Z,21.98
2023-03-18T04:18:17.047Z,22.00
2023-03-18T04:20:45.106Z,22.20
2023-03-18T04:23:12.959Z,22.92
2023-03-18T04:25:40.120Z,21.48
2023-03-18T04:28:07.156Z,22.52
2023-03-18T04:30:34.478Z,21.40
2023-03-18T04:33:01.995Z,21.90
2023-03-18T04:35:29.479Z,22.67
2023-03-18T04:37:56.526Z,21.13
2023-03-18T04:40:23.812Z,21.90
2023-03-18T04:42:51.171Z,22.58
2023-03-18T04:45:18.829Z,21.95
2023-03-18T06:04:50.863Z,24.30
2023-03-18T06:41:47.846Z,25.85
2023-03-18T06:44:14.929Z,26.15
2023-03-18T06:46:43.789Z,21.15
2023-03-18T06:49:11.710Z,20.73
2023-03-18T06:51:39.075Z,22.75
2023-03-18T06:54:06.243Z,24.08
2023-03-18T06:56:39.143Z,24.05
2023-03-18T06:59:08.135Z,24.10
2023-03-18T07:01:36.204Z,24.27
2023-03-18T07:04:03.969Z,24.65
2023-03-18T07:06:31.809Z,24.00
2023-03-18T07:08:59.718Z,25.05
2023-03-18T07:11:27.816Z,24.27
2023-03-18T07:13:54.907Z,24.38
2023-03-18T07:16:22.033Z,23.85
2023-03-18T07:18:49.080Z,22.75
2023-03-18T07:21:16.918Z,23.42
2023-03-18T07:23:44.737Z,23.52
2023-03-18T07:40:54.971Z,22.50
2023-03-18T07:43:21.966Z,21.60
2023-03-18T07:45:49.175Z,22.35
2023-03-18T07:48:16.733Z,23.23
2023-03-18T07:50:43.798Z,22.30
2023-03-18T07:53:16.237Z,20.95
2023-03-18T07:55:44.766Z,21.00
2023-03-18T07:58:12.206Z,22.42
2023-03-18T08:00:39.601Z,21.75
2023-03-18T08:03:06.591Z,22.55
2023-03-18T08:05:34.247Z,20.80
2023-03-18T08:08:02.497Z,21.17
2023-03-18T08:10:29.824Z,19.98
2023-03-18T08:12:57.746Z,19.70
2023-03-18T08:15:26.419Z,20.58
2023-03-18T08:17:53.998Z,21.27
2023-03-18T08:20:21.803Z,20.15
2023-03-18T08:22:50.122Z,19.83
2023-03-18T08:25:17.945Z,20.42
2023-03-18T08:27:44.977Z,20.02
2023-03-18T08:30:13.835Z,20.00
2023-03-18T08:32:41.004Z,21.35
2023-03-18T08:35:10.012Z,21.77
2023-03-18T08:37:37.524Z,21.92
2023-03-18T08:40:06.630Z,21.52
2023-03-18T08:42:33.613Z,20.75
2023-03-18T08:45:04.919Z,22.10
2023-03-18T08:47:32.522Z,21.23
2023-03-18T08:49:59.618Z,22.00
2023-03-18T08:52:26.765Z,20.80
2023-03-18T08:54:53.795Z,21.42
2023-03-18T08:57:20.948Z,19.45
2023-03-18T08:59:48.318Z,20.20
2023-03-18T09:02:16.994Z,18.35
2023-03-18T09:04:44.382Z,17.55
2023-03-18T09:07:13.276Z,16.98
2023-03-18T09:09:43.888Z,18.48
2023-03-18T09:12:12.963Z,18.42
2023-03-18T09:14:42.914Z,19.50
2023-03-18T09:17:10.194Z,19.10
2023-03-18T09:19:37.599Z,19.70
2023-03-18T09:22:04.812Z,18.50
2023-03-18T09:24:31.940Z,19.63
2023-03-18T09:27:00.042Z,18.63
2023-03-18T09:29:27.807Z,18.55
2023-03-18T09:31:55.781Z,18.63
2023-03-18T09:34:22.915Z,17.83
2023-03-18T09:36:51.709Z,18.33
2023-03-18T09:39:22.278Z,18.48
2023-03-18T09:42:23.887Z,17.42
2023-03-18T09:45:00.215Z,17.38
2023-03-18T09:47:57.106Z,16.33
2023-03-18T09:50:41.768Z,17.58
2023-03-18T09:53:27.702Z,17.35
2023-03-18T09:55:59.081Z,16.27
2023-03-18T09:58:53.941Z,15.75
2023-03-18T10:01:23.323Z,15.75
2023-03-18T10:04:13.967Z,16.52
2023-03-18T10:06:43.163Z,16.52
2023-03-18T10:09:29.677Z,18.13
2023-03-18T10:12:23.548Z,17.25
2023-03-18T10:15:04.619Z,17.20
2023-03-18T10:18:15.611Z,18.35
2023-03-18T10:20:54.625Z,18.50
2023-03-18T10:23:34.080Z,18.67
2023-03-18T10:26:36.008Z,19.08
2023-03-18T10:29:49.443Z,19.48
2023-03-18T10:32:54.830Z,19.58
2023-03-18T10:35:46.101Z,17.13
2023-03-18T10:38:27.146Z,17.17
2023-03-18T10:40:54.774Z,16.77
2023-03-18T10:43:26.195Z,17.52
2023-03-18T10:46:04.197Z,17.88
2023-03-18T10:48:43.030Z,17.63
2023-03-18T10:51:34.924Z,16.42
2023-03-18T10:54:34.044Z,15.07
2023-03-18T10:57:01.341Z,13.98
2023-03-18T10:59:29.232Z,13.70
2023-03-18T11:02:34.276Z,14.40
2023-03-18T11:05:33.896Z,14.25
2023-03-18T11:08:11.662Z,15.68
2023-03-18T11:10:46.597Z,15.23
2023-03-18T11:13:23.569Z,14.27
2023-03-18T11:15:56.731Z,15.50
2023-03-18T11:18:26.545Z,15.98
2023-03-18T11:21:01.508Z,14.65
2023-03-18T11:24:24.745Z,15.13
2023-03-18T11:26:57.178Z,14.48
2023-03-18T11:29:30.291Z,14.27
2023-03-18T11:31:59.125Z,14.65
2023-03-18T11:34:30.395Z,13.20
2023-03-18T11:37:04.965Z,12.70
2023-03-18T11:39:37.717Z,11.93
2023-03-18T11:42:22.625Z,11.15
2023-03-18T11:44:54.350Z,10.60
2023-03-18T11:47:28.841Z,9.40
2023-03-18T11:49:57.484Z,10.57
2023-03-18T11:52:59.769Z,9.88
2023-03-18T11:55:52.783Z,11.40
2023-03-18T11:59:16.839Z,10.73
2023-03-18T12:02:17.837Z,11.25
2023-03-18T12:05:45.672Z,9.60
2023-03-18T12:08:39.687Z,10.02
2023-03-18T12:11:25.863Z,11.32
2023-03-18T12:14:37.921Z,9.05
2023-03-18T12:20:22.589Z,10.35
2023-03-18T12:23:33.904Z,9.82
2023-03-18T12:26:18.157Z,9.95
2023-03-18T12:29:18.204Z,9.93
2023-03-18T12:32:19.634Z,10.05
2023-03-18T12:35:19.561Z,9.05
2023-03-18T12:38:02.493Z,8.80
2023-03-18T12:40:54.692Z,8.55
2023-03-18T12:43:55.750Z,7.47
2023-03-18T12:47:01.552Z,6.90
2023-03-18T12:49:33.166Z,6.75
2023-03-18T12:55:36.388Z,5.32
2023-03-18T12:58:12.077Z,5.28
2023-03-18T13:01:19.608Z,4.82
2023-03-18T13:04:07.515Z,5.43
2023-03-18T13:06:56.534Z,5.22
2023-03-18T13:09:40.760Z,5.03
2023-03-18T13:12:20.942Z,4.97
2023-03-18T13:15:08.355Z,5.03
2023-03-18T13:17:45.034Z,4.85
2023-03-18T13:20:43.635Z,4.45
2023-03-18T13:24:02.339Z,5.30
2023-03-18T13:26:49.532Z,6.53
2023-03-18T13:29:35.103Z,7.68
2023-03-18T13:32:34.362Z,7.00
2023-03-18T13:35:39.426Z,7.30
2023-03-18T13:38:40.238Z,6.70
2023-03-18T13:41:52.510Z,6.45
2023-03-18T13:44:25.249Z,6.53
2023-03-18T13:47:03.053Z,6.00
2023-03-18T13:49:32.198Z,5.38
2023-03-18T13:52:02.102Z,5.32
2023-03-18T13:54:37.190Z,5.68
2023-03-18T13:57:22.856Z,5.90
2023-03-18T13:59:50.207Z,6.82
2023-03-18T14:02:43.798Z,7.22
2023-03-18T14:05:33.360Z,6.70
2023-03-18T14:08:24.275Z,6.30
2023-03-18T14:11:17.714Z,4.90
2023-03-18T14:13:52.730Z,4.70
2023-03-18T14:16:30.092Z,5.13
2023-03-18T14:19:03.385Z,5.25
2023-03-18T14:21:32.957Z,5.70
2023-03-18T14:24:17.783Z,4.85
2023-03-18T14:27:05.696Z,6.03
2023-03-18T14:29:45.234Z,6.40
2023-03-18T14:32:38.219Z,6.20
2023-03-18T14:35:28.839Z,6.03
2023-03-18T14:38:03.677Z,6.22
2023-03-18T14:40:35.972Z,5.45
2023-03-18T14:43:10.746Z,5.10
2023-03-18T14:45:44.234Z,5.60
2023-03-18T14:48:32.989Z,6.03
2023-03-18T14:51:17.191Z,5.47
2023-03-18T14:54:05.893Z,5.47
2023-03-18T14:56:40.731Z,4.50
2023-03-18T14:59:12.963Z,4.13
2023-03-18T15:01:41.837Z,4.90
2023-03-18T15:04:18.238Z,4.15
2023-03-18T15:06:45.771Z,4.50
2023-03-18T15:09:27.212Z,3.80
2023-03-18T15:11:55.142Z,4.18
2023-03-18T15:14:30.019Z,4.53
2023-03-18T15:17:01.019Z,3.60
2023-03-18T15:19:29.456Z,4.07
2023-03-18T15:22:01.082Z,12.90
2023-03-18T15:27:14.653Z,5.30
2023-03-18T15:29:57.328Z,4.07
2023-03-18T15:32:53.023Z,4.40
2023-03-18T15:35:24.901Z,4.72
2023-03-18T15:38:10.227Z,5.50
2023-03-18T15:40:50.589Z,5.70
2023-03-18T15:43:42.836Z,5.38
2023-03-18T15:46:31.181Z,5.28
2023-03-18T15:49:01.168Z,5.55
2023-03-18T15:51:46.338Z,5.25
2023-03-18T15:54:22.733Z,6.15
2023-03-18T15:56:52.719Z,5.25
2023-03-18T15:59:28.899Z,5.20
2023-03-18T16:01:59.830Z,6.70
2023-03-18T16:04:32.765Z,6.18
2023-03-18T16:06:59.833Z,5.25
2023-03-18T16:09:27.299Z,5.40
2023-03-18T16:12:19.864Z,5.90
2023-03-18T16:14:49.251Z,5.40
2023-03-18T16:17:21.579Z,5.93
2023-03-18T16:19:54.205Z,6.35
2023-03-18T16:22:22.049Z,5.82
2023-03-18T16:24:49.197Z,5.32
2023-03-18T16:27:38.522Z,5.53
2023-03-18T16:30:23.436Z,4.80
2023-03-18T16:32:51.322Z,4.40
2023-03-18T16:35:33.355Z,4.28
2023-03-18T16:38:01.358Z,4.25
2023-03-18T16:40:31.517Z,3.90
2023-03-18T16:42:58.815Z,3.47
2023-03-18T16:45:30.714Z,3.85
2023-03-18T16:48:08.187Z,4.07
2023-03-18T16:50:37.759Z,3.97
2023-03-18T16:53:21.606Z,3.55
2023-03-18T16:55:51.894Z,3.80
2023-03-18T16:58:35.413Z,3.50
2023-03-18T17:01:07.760Z,3.80
2023-03-18T17:03:36.269Z,3.95
2023-03-18T17:06:04.449Z,3.95
2023-03-18T17:08:31.560Z,4.10
2023-03-18T17:10:59.983Z,4.30
2023-03-18T17:13:33.617Z,4.05
2023-03-18T17:16:01.796Z,4.07
2023-03-18T17:18:28.882Z,3.88
2023-03-18T17:20:55.981Z,3.80
2023-03-18T17:23:26.891Z,3.97
2023-03-18T17:26:02.957Z,4.47
2023-03-18T17:28:59.136Z,4.35
2023-03-18T17:31:26.322Z,4.53
2023-03-18T17:33:53.399Z,5.47
2023-03-18T17:36:20.762Z,4.85
2023-03-18T17:38:48.127Z,5.28
2023-03-18T17:41:21.806Z,4.45
2023-03-18T17:43:48.926Z,5.20
2023-03-18T17:46:16.102Z,5.82
2023-03-18T17:48:43.893Z,4.53
2023-03-18T17:51:18.157Z,4.30
2023-03-18T17:53:49.155Z,4.63
2023-03-18T17:56:19.400Z,4.80
2023-03-18T17:58:51.609Z,5.03
2023-03-18T18:01:26.805Z,5.18
2023-03-18T18:03:59.002Z,5.43
2023-03-18T18:06:31.105Z,5.57
2023-03-18T18:09:00.683Z,5.50
2023-03-18T18:11:38.026Z,5.50
2023-03-18T18:14:26.215Z,5.35
2023-03-18T18:16:56.187Z,5.70
2023-03-18T18:19:24.377Z,5.60
2023-03-18T18:21:51.820Z,6.03
2023-03-18T18:24:29.292Z,6.60
2023-03-18T18:31:52.769Z,9.57
2023-03-18T20:07:20.263Z,9.10
2023-03-18T20:09:48.577Z,8.82
2023-03-18T20:12:51.857Z,8.20
2023-03-18T20:15:22.854Z,9.13
2023-03-18T20:17:51.754Z,8.80
2023-03-18T20:20:23.016Z,8.48
2023-03-18T20:23:01.996Z,8.13
2023-03-18T20:25:40.535Z,8.68
2023-03-18T20:28:17.656Z,7.88
2023-03-18T20:30:46.278Z,6.82
2023-03-18T20:33:13.963Z,6.55
2023-03-18T20:35:44.249Z,8.05
2023-03-18T20:38:31.666Z,6.45
2023-03-18T20:43:28.409Z,6.57
2023-03-18T20:45:57.646Z,5.60
2023-03-18T20:48:24.856Z,6.20
2023-03-18T21:30:58.228Z,4.22
2023-03-18T21:33:33.991Z,5.22
2023-03-18T21:36:02.428Z,4.88
2023-03-18T21:38:31.756Z,4.00
2023-03-18T21:41:02.697Z,3.25
2023-03-18T21:43:36.667Z,3.30
2023-03-18T21:46:06.826Z,4.20
2023-03-18T21:48:33.939Z,4.20
2023-03-18T21:51:01.006Z,2.95
2023-03-18T21:53:28.890Z,3.50
2023-03-18T21:55:56.268Z,2.75
2023-03-18T21:58:26.400Z,3.55
2023-03-18T22:00:59.361Z,2.53
2023-03-18T22:03:31.908Z,2.80
2023-03-18T22:05:58.897Z,3.22
2023-03-18T22:08:25.957Z,3.17
2023-03-18T22:10:53.265Z,3.65
2023-03-18T22:13:26.214Z,4.10
2023-03-18T22:15:56.002Z,4.53
2023-03-18T22:18:23.630Z,3.72
2023-03-18T22:20:51.862Z,4.45
2023-03-18T22:23:25.582Z,3.30
2023-03-18T22:25:55.018Z,3.20
2023-03-18T22:28:23.134Z,3.10
2023-03-18T22:30:52.537Z,2.75
2023-03-18T22:33:25.317Z,3.00
2023-03-18T22:35:52.997Z,2.75
2023-03-18T22:38:22.167Z,2.90
2023-03-18T22:40:59.506Z,3.42
2023-03-18T22:43:35.482Z,3.15
2023-03-18T22:46:06.878Z,2.55
2023-03-18T22:48:34.125Z,2.83
2023-03-18T22:51:01.371Z,3.08
2023-03-18T22:53:38.686Z,2.42
2023-03-18T22:56:11.791Z,2.13
2023-03-18T22:58:39.420Z,2.30
2023-03-18T23:01:06.541Z,2.22
2023-03-18T23:03:37.134Z,3.35
2023-03-18T23:06:04.715Z,2.65
2023-03-18T23:08:32.370Z,2.85
